sensor_id;sensor_type;location;lat;lon;timestamp;pressure;altitude;pressure_sealevel;temperature;humidity
66681;BME280;53575;51.366;12.350;2023-04-27T00:01:41;100621.72;;;3.29;91.81
66681;BME280;53575;51.366;12.350;2023-04-27T00:04:07;100614.72;;;3.25;91.07
66681;BME280;53575;51.366;12.350;2023-04-27T00:06:32;100619.38;;;3.08;90.37
66681;BME280;53575;51.366;12.350;2023-04-27T00:08:58;100608.75;;;3.28;93.26
66681;BME280;53575;51.366;12.350;2023-04-27T00:11:24;100608.00;;;3.32;93.96
66681;BME280;53575;51.366;12.350;2023-04-27T00:13:49;100617.09;;;3.17;91.20
66681;BME280;53575;51.366;12.350;2023-04-27T00:16:15;100614.38;;;3.13;91.01
66681;BME280;53575;51.366;12.350;2023-04-27T00:18:40;100613.78;;;2.93;91.61
66681;BME280;53575;51.366;12.350;2023-04-27T00:21:07;100613.25;;;3.05;90.47
66681;BME280;53575;51.366;12.350;2023-04-27T00:23:33;100611.19;;;2.93;90.76
66681;BME280;53575;51.366;12.350;2023-04-27T00:25:58;100609.66;;;3.00;91.72
66681;BME280;53575;51.366;12.350;2023-04-27T00:28:24;100606.63;;;2.84;92.63
66681;BME280;53575;51.366;12.350;2023-04-27T00:30:50;100606.34;;;3.04;94.79
66681;BME280;53575;51.366;12.350;2023-04-27T00:33:18;100612.91;;;2.92;95.01
66681;BME280;53575;51.366;12.350;2023-04-27T00:35:44;100610.13;;;3.16;95.12
66681;BME280;53575;51.366;12.350;2023-04-27T00:38:10;100607.56;;;3.16;96.38
66681;BME280;53575;51.366;12.350;2023-04-27T00:40:36;100607.63;;;3.18;94.59
66681;BME280;53575;51.366;12.350;2023-04-27T00:43:01;100598.25;;;3.22;94.50
66681;BME280;53575;51.366;12.350;2023-04-27T00:45:27;100605.91;;;3.18;94.52
66681;BME280;53575;51.366;12.350;2023-04-27T00:47:52;100601.47;;;2.84;94.89
66681;BME280;53575;51.366;12.350;2023-04-27T00:50:28;100607.28;;;3.06;96.57
66681;BME280;53575;51.366;12.350;2023-04-27T00:52:55;100599.75;;;3.13;97.32
66681;BME280;53575;51.366;12.350;2023-04-27T00:55:22;100606.69;;;3.16;96.77
66681;BME280;53575;51.366;12.350;2023-04-27T00:57:47;100607.78;;;3.24;95.92
66681;BME280;53575;51.366;12.350;2023-04-27T01:00:13;100608.53;;;3.20;96.52
66681;BME280;53575;51.366;12.350;2023-04-27T01:02:40;100609.38;;;3.19;95.71
66681;BME280;53575;51.366;12.350;2023-04-27T01:05:06;100605.06;;;3.20;95.08
66681;BME280;53575;51.366;12.350;2023-04-27T01:07:36;100611.78;;;3.13;96.51
66681;BME280;53575;51.366;12.350;2023-04-27T01:10:02;100608.81;;;3.29;98.06
66681;BME280;53575;51.366;12.350;2023-04-27T01:12:27;100616.88;;;3.10;97.09
66681;BME280;53575;51.366;12.350;2023-04-27T01:14:53;100617.22;;;2.93;96.81
66681;BME280;53575;51.366;12.350;2023-04-27T01:17:18;100618.25;;;2.99;96.24
66681;BME280;53575;51.366;12.350;2023-04-27T01:19:44;100623.53;;;2.75;95.73
66681;BME280;53575;51.366;12.350;2023-04-27T01:22:10;100625.88;;;2.67;93.21
66681;BME280;53575;51.366;12.350;2023-04-27T01:24:35;100627.06;;;2.48;93.77
66681;BME280;53575;51.366;12.350;2023-04-27T01:27:01;100631.97;;;2.40;93.99
66681;BME280;53575;51.366;12.350;2023-04-27T01:29:26;100630.78;;;2.31;94.33
66681;BME280;53575;51.366;12.350;2023-04-27T01:31:52;100637.75;;;2.33;92.78
66681;BME280;53575;51.366;12.350;2023-04-27T01:34:17;100624.94;;;2.36;92.45
66681;BME280;53575;51.366;12.350;2023-04-27T01:36:43;100632.00;;;2.15;92.58
66681;BME280;53575;51.366;12.350;2023-04-27T01:39:08;100632.00;;;2.15;92.23
66681;BME280;53575;51.366;12.350;2023-04-27T01:41:37;100633.38;;;2.05;93.08
66681;BME280;53575;51.366;12.350;2023-04-27T01:44:02;100640.31;;;2.06;92.91
66681;BME280;53575;51.366;12.350;2023-04-27T01:46:28;100639.41;;;2.06;92.64
66681;BME280;53575;51.366;12.350;2023-04-27T01:48:53;100648.41;;;1.91;93.80
66681;BME280;53575;51.366;12.350;2023-04-27T01:51:18;100641.78;;;2.00;94.73
66681;BME280;53575;51.366;12.350;2023-04-27T01:53:44;100638.69;;;2.10;94.05
66681;BME280;53575;51.366;12.350;2023-04-27T01:56:10;100633.94;;;2.22;92.48
66681;BME280;53575;51.366;12.350;2023-04-27T01:58:35;100639.88;;;2.19;91.71
66681;BME280;53575;51.366;12.350;2023-04-27T02:01:01;100642.97;;;2.36;90.61
66681;BME280;53575;51.366;12.350;2023-04-27T02:03:26;100644.88;;;2.40;90.62
66681;BME280;53575;51.366;12.350;2023-04-27T02:05:52;100645.63;;;2.38;89.96
66681;BME280;53575;51.366;12.350;2023-04-27T02:08:17;100644.16;;;2.19;89.91
66681;BME280;53575;51.366;12.350;2023-04-27T02:10:42;100640.41;;;2.36;88.58
66681;BME280;53575;51.366;12.350;2023-04-27T02:13:08;100640.41;;;2.36;89.41
66681;BME280;53575;51.366;12.350;2023-04-27T02:15:34;100639.91;;;2.21;90.02
66681;BME280;53575;51.366;12.350;2023-04-27T02:17:59;100646.72;;;2.19;89.76
66681;BME280;53575;51.366;12.350;2023-04-27T02:20:25;100644.88;;;2.15;88.65
66681;BME280;53575;51.366;12.350;2023-04-27T02:22:51;100655.91;;;2.11;89.24
66681;BME280;53575;51.366;12.350;2023-04-27T02:25:18;100653.84;;;2.01;89.94
66681;BME280;53575;51.366;12.350;2023-04-27T02:27:43;100652.97;;;2.00;90.90
66681;BME280;53575;51.366;12.350;2023-04-27T02:30:10;100658.34;;;2.06;90.26
66681;BME280;53575;51.366;12.350;2023-04-27T02:32:36;100658.44;;;1.84;90.60
66681;BME280;53575;51.366;12.350;2023-04-27T02:35:02;100654.19;;;1.86;91.25
66681;BME280;53575;51.366;12.350;2023-04-27T02:37:27;100664.47;;;1.84;91.27
66681;BME280;53575;51.366;12.350;2023-04-27T02:39:53;100665.44;;;1.88;90.94
66681;BME280;53575;51.366;12.350;2023-04-27T02:42:18;100672.66;;;1.73;90.92
66681;BME280;53575;51.366;12.350;2023-04-27T02:44:45;100668.69;;;1.58;92.19
66681;BME280;53575;51.366;12.350;2023-04-27T02:47:11;100666.69;;;1.75;91.81
66681;BME280;53575;51.366;12.350;2023-04-27T02:49:36;100678.66;;;1.73;91.30
66681;BME280;53575;51.366;12.350;2023-04-27T02:52:02;100669.47;;;1.80;91.15
66681;BME280;53575;51.366;12.350;2023-04-27T02:54:28;100670.06;;;1.73;91.30
66681;BME280;53575;51.366;12.350;2023-04-27T02:56:53;100663.22;;;1.73;92.31
66681;BME280;53575;51.366;12.350;2023-04-27T02:59:18;100674.53;;;1.78;92.34
66681;BME280;53575;51.366;12.350;2023-04-27T03:01:44;100680.31;;;1.71;91.61
66681;BME280;53575;51.366;12.350;2023-04-27T03:04:09;100684.81;;;1.53;91.62
66681;BME280;53575;51.366;12.350;2023-04-27T03:06:38;100680.59;;;1.55;92.31
66681;BME280;53575;51.366;12.350;2023-04-27T03:09:03;100685.09;;;1.60;92.95
66681;BME280;53575;51.366;12.350;2023-04-27T03:11:29;100691.56;;;1.49;92.64
66681;BME280;53575;51.366;12.350;2023-04-27T03:13:55;100679.38;;;1.45;92.60
66681;BME280;53575;51.366;12.350;2023-04-27T03:16:20;100685.13;;;1.38;92.73
66681;BME280;53575;51.366;12.350;2023-04-27T03:18:46;100690.22;;;1.36;92.22
66681;BME280;53575;51.366;12.350;2023-04-27T03:21:11;100699.59;;;1.34;93.14
66681;BME280;53575;51.366;12.350;2023-04-27T03:23:37;100699.75;;;1.63;92.00
66681;BME280;53575;51.366;12.350;2023-04-27T03:26:10;100696.91;;;1.79;90.36
66681;BME280;53575;51.366;12.350;2023-04-27T03:28:36;100692.59;;;1.78;90.02
66681;BME280;53575;51.366;12.350;2023-04-27T03:31:05;100695.50;;;1.87;89.64
66681;BME280;53575;51.366;12.350;2023-04-27T03:33:31;100690.16;;;1.83;90.13
66681;BME280;53575;51.366;12.350;2023-04-27T03:35:56;100695.59;;;1.90;89.47
66681;BME280;53575;51.366;12.350;2023-04-27T03:38:23;100697.09;;;1.84;89.48
66681;BME280;53575;51.366;12.350;2023-04-27T03:40:48;100697.84;;;1.81;89.92
66681;BME280;53575;51.366;12.350;2023-04-27T03:43:14;100701.38;;;1.83;90.41
66681;BME280;53575;51.366;12.350;2023-04-27T03:45:39;100695.72;;;2.19;88.86
66681;BME280;53575;51.366;12.350;2023-04-27T03:48:05;100702.31;;;1.87;90.54
66681;BME280;53575;51.366;12.350;2023-04-27T03:50:31;100702.88;;;1.78;90.87
66681;BME280;53575;51.366;12.350;2023-04-27T03:52:56;100707.94;;;1.75;90.65
66681;BME280;53575;51.366;12.350;2023-04-27T03:55:22;100704.19;;;1.67;90.50
66681;BME280;53575;51.366;12.350;2023-04-27T03:57:47;100714.59;;;1.68;90.96
66681;BME280;53575;51.366;12.350;2023-04-27T04:00:13;100717.59;;;1.81;90.30
66681;BME280;53575;51.366;12.350;2023-04-27T04:02:39;100722.53;;;1.99;89.95
66681;BME280;53575;51.366;12.350;2023-04-27T04:05:05;100724.72;;;1.88;89.82
66681;BME280;53575;51.366;12.350;2023-04-27T04:07:30;100732.59;;;1.92;90.22
66681;BME280;53575;51.366;12.350;2023-04-27T04:09:55;100735.34;;;1.97;90.00
66681;BME280;53575;51.366;12.350;2023-04-27T04:12:21;100731.59;;;2.13;89.51
66681;BME280;53575;51.366;12.350;2023-04-27T04:14:46;100738.13;;;2.29;89.66
66681;BME280;53575;51.366;12.350;2023-04-27T04:17:13;100741.88;;;2.37;90.45
66681;BME280;53575;51.366;12.350;2023-04-27T04:19:39;100742.94;;;2.43;89.85
66681;BME280;53575;51.366;12.350;2023-04-27T04:22:04;100744.50;;;2.38;89.33
66681;BME280;53575;51.366;12.350;2023-04-27T04:24:30;100736.50;;;2.31;90.06
66681;BME280;53575;51.366;12.350;2023-04-27T04:26:55;100741.16;;;2.41;88.83
66681;BME280;53575;51.366;12.350;2023-04-27T04:29:21;100737.06;;;2.48;87.65
66681;BME280;53575;51.366;12.350;2023-04-27T04:31:46;100737.84;;;2.45;88.04
66681;BME280;53575;51.366;12.350;2023-04-27T04:34:12;100732.41;;;2.63;88.29
66681;BME280;53575;51.366;12.350;2023-04-27T04:36:38;100727.50;;;2.71;88.00
66681;BME280;53575;51.366;12.350;2023-04-27T04:39:05;100735.97;;;2.93;88.90
66681;BME280;53575;51.366;12.350;2023-04-27T04:41:31;100737.09;;;3.02;88.41
66681;BME280;53575;51.366;12.350;2023-04-27T04:43:57;100739.84;;;3.08;87.13
66681;BME280;53575;51.366;12.350;2023-04-27T04:46:22;100735.03;;;3.18;88.11
66681;BME280;53575;51.366;12.350;2023-04-27T04:48:50;100736.69;;;2.89;87.07
66681;BME280;53575;51.366;12.350;2023-04-27T04:51:16;100728.03;;;3.14;87.44
66681;BME280;53575;51.366;12.350;2023-04-27T04:53:41;100734.19;;;3.20;87.34
66681;BME280;53575;51.366;12.350;2023-04-27T04:56:08;100728.22;;;3.51;85.71
66681;BME280;53575;51.366;12.350;2023-04-27T04:58:34;100730.47;;;3.69;84.62
66681;BME280;53575;51.366;12.350;2023-04-27T05:00:59;100728.19;;;3.49;83.18
66681;BME280;53575;51.366;12.350;2023-04-27T05:03:26;100740.50;;;3.58;83.22
66681;BME280;53575;51.366;12.350;2023-04-27T05:05:51;100743.16;;;3.61;83.67
66681;BME280;53575;51.366;12.350;2023-04-27T05:08:16;100744.25;;;3.69;82.71
66681;BME280;53575;51.366;12.350;2023-04-27T05:10:50;100737.59;;;3.77;84.42
66681;BME280;53575;51.366;12.350;2023-04-27T05:13:16;100742.81;;;3.79;85.04
66681;BME280;53575;51.366;12.350;2023-04-27T05:15:41;100733.44;;;3.82;83.72
66681;BME280;53575;51.366;12.350;2023-04-27T05:18:07;100740.81;;;4.00;84.56
66681;BME280;53575;51.366;12.350;2023-04-27T05:20:35;100740.13;;;4.06;83.53
66681;BME280;53575;51.366;12.350;2023-04-27T05:23:01;100733.47;;;4.15;82.07
66681;BME280;53575;51.366;12.350;2023-04-27T05:25:30;100731.25;;;4.29;83.03
66681;BME280;53575;51.366;12.350;2023-04-27T05:27:56;100729.03;;;4.43;83.45
66681;BME280;53575;51.366;12.350;2023-04-27T05:30:21;100730.97;;;4.52;84.22
66681;BME280;53575;51.366;12.350;2023-04-27T05:32:47;100728.53;;;4.58;83.88
66681;BME280;53575;51.366;12.350;2023-04-27T05:35:12;100742.75;;;4.40;82.47
66681;BME280;53575;51.366;12.350;2023-04-27T05:37:38;100739.88;;;4.30;81.49
66681;BME280;53575;51.366;12.350;2023-04-27T05:40:03;100745.25;;;4.37;81.11
66681;BME280;53575;51.366;12.350;2023-04-27T05:42:35;100747.25;;;4.48;82.25
66681;BME280;53575;51.366;12.350;2023-04-27T05:45:01;100746.03;;;4.35;84.76
66681;BME280;53575;51.366;12.350;2023-04-27T05:47:27;100746.09;;;4.36;84.02
66681;BME280;53575;51.366;12.350;2023-04-27T05:49:53;100745.78;;;4.24;84.16
66681;BME280;53575;51.366;12.350;2023-04-27T05:52:19;100740.06;;;4.36;84.57
66681;BME280;53575;51.366;12.350;2023-04-27T05:54:48;100741.91;;;4.42;82.87
66681;BME280;53575;51.366;12.350;2023-04-27T05:57:14;100744.22;;;4.31;82.45
66681;BME280;53575;51.366;12.350;2023-04-27T05:59:40;100745.44;;;4.44;83.03
66681;BME280;53575;51.366;12.350;2023-04-27T06:02:06;100735.72;;;4.70;83.86
66681;BME280;53575;51.366;12.350;2023-04-27T06:04:31;100743.72;;;4.80;82.37
66681;BME280;53575;51.366;12.350;2023-04-27T06:06:58;100743.72;;;4.79;81.75
66681;BME280;53575;51.366;12.350;2023-04-27T06:09:23;100749.44;;;4.66;80.32
66681;BME280;53575;51.366;12.350;2023-04-27T06:11:49;100751.03;;;4.60;80.82
66681;BME280;53575;51.366;12.350;2023-04-27T06:14:15;100746.78;;;4.64;80.41
66681;BME280;53575;51.366;12.350;2023-04-27T06:16:41;100760.59;;;4.63;81.17
66681;BME280;53575;51.366;12.350;2023-04-27T06:19:06;100758.13;;;4.69;81.56
66681;BME280;53575;51.366;12.350;2023-04-27T06:21:32;100754.84;;;4.76;82.23
66681;BME280;53575;51.366;12.350;2023-04-27T06:23:58;100765.88;;;4.69;82.74
66681;BME280;53575;51.366;12.350;2023-04-27T06:26:24;100756.56;;;4.76;82.09
66681;BME280;53575;51.366;12.350;2023-04-27T06:28:49;100760.28;;;4.85;82.02
66681;BME280;53575;51.366;12.350;2023-04-27T06:31:15;100758.88;;;5.00;80.21
66681;BME280;53575;51.366;12.350;2023-04-27T06:33:41;100768.50;;;5.04;81.24
66681;BME280;53575;51.366;12.350;2023-04-27T06:36:07;100764.28;;;5.48;78.78
66681;BME280;53575;51.366;12.350;2023-04-27T06:38:32;100770.25;;;5.85;76.46
66681;BME280;53575;51.366;12.350;2023-04-27T06:40:58;100771.59;;;6.07;73.29
66681;BME280;53575;51.366;12.350;2023-04-27T06:43:23;100769.47;;;6.33;73.42
66681;BME280;53575;51.366;12.350;2023-04-27T06:45:49;100767.34;;;6.57;73.85
66681;BME280;53575;51.366;12.350;2023-04-27T06:48:15;100764.44;;;6.92;73.88
66681;BME280;53575;51.366;12.350;2023-04-27T06:50:41;100767.38;;;7.14;71.33
66681;BME280;53575;51.366;12.350;2023-04-27T06:53:07;100763.22;;;7.26;70.19
66681;BME280;53575;51.366;12.350;2023-04-27T06:55:33;100763.53;;;7.48;69.62
66681;BME280;53575;51.366;12.350;2023-04-27T06:57:58;100765.31;;;7.52;69.69
66681;BME280;53575;51.366;12.350;2023-04-27T07:00:23;100769.00;;;7.69;69.48
66681;BME280;53575;51.366;12.350;2023-04-27T07:02:49;100762.13;;;7.74;69.37
66681;BME280;53575;51.366;12.350;2023-04-27T07:05:15;100774.66;;;8.06;67.48
66681;BME280;53575;51.366;12.350;2023-04-27T07:07:40;100774.53;;;7.94;67.44
66681;BME280;53575;51.366;12.350;2023-04-27T07:10:07;100778.19;;;8.10;67.38
66681;BME280;53575;51.366;12.350;2023-04-27T07:12:33;100777.41;;;8.17;66.87
66681;BME280;53575;51.366;12.350;2023-04-27T07:14:58;100785.38;;;8.32;67.00
66681;BME280;53575;51.366;12.350;2023-04-27T07:17:24;100783.38;;;8.10;66.43
66681;BME280;53575;51.366;12.350;2023-04-27T07:19:49;100782.78;;;8.34;66.84
66681;BME280;53575;51.366;12.350;2023-04-27T07:22:15;100789.94;;;8.51;66.30
66681;BME280;53575;51.366;12.350;2023-04-27T07:24:40;100787.38;;;8.56;66.14
66681;BME280;53575;51.366;12.350;2023-04-27T07:27:06;100787.44;;;8.65;66.69
66681;BME280;53575;51.366;12.350;2023-04-27T07:29:32;100782.38;;;8.79;65.66
66681;BME280;53575;51.366;12.350;2023-04-27T07:31:57;100787.59;;;8.79;66.41
66681;BME280;53575;51.366;12.350;2023-04-27T07:34:23;100789.34;;;8.82;65.66
66681;BME280;53575;51.366;12.350;2023-04-27T07:36:49;100799.56;;;8.62;66.70
66681;BME280;53575;51.366;12.350;2023-04-27T07:39:14;100792.78;;;8.81;66.20
66681;BME280;53575;51.366;12.350;2023-04-27T07:41:39;100793.75;;;8.90;65.06
66681;BME280;53575;51.366;12.350;2023-04-27T07:44:05;100795.47;;;8.88;65.82
66681;BME280;53575;51.366;12.350;2023-04-27T07:46:30;100793.88;;;9.06;65.98
66681;BME280;53575;51.366;12.350;2023-04-27T07:48:56;100804.41;;;9.16;65.14
66681;BME280;53575;51.366;12.350;2023-04-27T07:51:23;100804.50;;;9.35;64.19
66681;BME280;53575;51.366;12.350;2023-04-27T07:53:49;100792.41;;;9.44;63.69
66681;BME280;53575;51.366;12.350;2023-04-27T07:56:15;100805.25;;;9.12;64.75
66681;BME280;53575;51.366;12.350;2023-04-27T07:58:41;100800.09;;;9.26;64.18
66681;BME280;53575;51.366;12.350;2023-04-27T08:01:07;100803.53;;;9.19;64.18
66681;BME280;53575;51.366;12.350;2023-04-27T08:03:32;100809.53;;;9.07;64.56
66681;BME280;53575;51.366;12.350;2023-04-27T08:05:58;100806.22;;;9.28;64.73
66681;BME280;53575;51.366;12.350;2023-04-27T08:08:23;100811.50;;;9.36;63.03
66681;BME280;53575;51.366;12.350;2023-04-27T08:10:49;100808.91;;;9.39;62.28
66681;BME280;53575;51.366;12.350;2023-04-27T08:13:14;100809.75;;;9.36;61.09
66681;BME280;53575;51.366;12.350;2023-04-27T08:15:39;100807.34;;;9.71;59.20
66681;BME280;53575;51.366;12.350;2023-04-27T08:18:05;100811.69;;;9.68;58.77
66681;BME280;53575;51.366;12.350;2023-04-27T08:20:30;100813.47;;;9.80;58.63
66681;BME280;53575;51.366;12.350;2023-04-27T08:22:56;100816.03;;;9.66;59.80
66681;BME280;53575;51.366;12.350;2023-04-27T08:25:21;100808.28;;;9.87;58.32
66681;BME280;53575;51.366;12.350;2023-04-27T08:27:47;100812.66;;;9.90;58.40
66681;BME280;53575;51.366;12.350;2023-04-27T08:30:12;100804.94;;;10.16;57.90
66681;BME280;53575;51.366;12.350;2023-04-27T08:32:38;100798.88;;;10.23;56.94
66681;BME280;53575;51.366;12.350;2023-04-27T08:35:05;100799.78;;;10.27;57.52
66681;BME280;53575;51.366;12.350;2023-04-27T08:37:30;100805.94;;;10.45;55.91
66681;BME280;53575;51.366;12.350;2023-04-27T08:39:56;100807.53;;;10.17;56.17
66681;BME280;53575;51.366;12.350;2023-04-27T08:42:21;100808.41;;;10.16;56.25
66681;BME280;53575;51.366;12.350;2023-04-27T08:44:47;100797.72;;;9.58;57.74
66681;BME280;53575;51.366;12.350;2023-04-27T08:47:12;100798.44;;;9.33;58.96
66681;BME280;53575;51.366;12.350;2023-04-27T08:49:38;100792.41;;;9.43;58.18
66681;BME280;53575;51.366;12.350;2023-04-27T08:52:15;100787.16;;;9.41;58.26
66681;BME280;53575;51.366;12.350;2023-04-27T08:54:41;100796.56;;;9.19;58.85
66681;BME280;53575;51.366;12.350;2023-04-27T08:57:13;100791.44;;;9.30;57.42
66681;BME280;53575;51.366;12.350;2023-04-27T08:59:40;100786.28;;;9.38;58.06
66681;BME280;53575;51.366;12.350;2023-04-27T09:02:06;100784.56;;;9.41;59.03
66681;BME280;53575;51.366;12.350;2023-04-27T09:04:42;100802.03;;;9.56;57.64
66681;BME280;53575;51.366;12.350;2023-04-27T09:07:15;100788.19;;;9.62;56.76
66681;BME280;53575;51.366;12.350;2023-04-27T09:09:41;100782.09;;;9.63;56.32
66681;BME280;53575;51.366;12.350;2023-04-27T09:12:14;100792.63;;;9.87;55.34
66681;BME280;53575;51.366;12.350;2023-04-27T09:14:40;100788.38;;;10.18;54.81
66681;BME280;53575;51.366;12.350;2023-04-27T09:17:06;100783.25;;;10.34;53.29
66681;BME280;53575;51.366;12.350;2023-04-27T09:19:31;100776.31;;;10.68;54.18
66681;BME280;53575;51.366;12.350;2023-04-27T09:22:03;100782.44;;;10.90;52.80
66681;BME280;53575;51.366;12.350;2023-04-27T09:24:29;100785.03;;;10.50;53.37
66681;BME280;53575;51.366;12.350;2023-04-27T09:26:55;100773.69;;;10.40;54.61
66681;BME280;53575;51.366;12.350;2023-04-27T09:29:34;100778.88;;;10.28;54.99
66681;BME280;53575;51.366;12.350;2023-04-27T09:32:00;100780.66;;;10.38;53.75
66681;BME280;53575;51.366;12.350;2023-04-27T09:34:25;100782.38;;;10.29;53.06
66681;BME280;53575;51.366;12.350;2023-04-27T09:36:51;100767.59;;;10.64;51.91
66681;BME280;53575;51.366;12.350;2023-04-27T09:39:17;100775.47;;;11.09;51.16
66681;BME280;53575;51.366;12.350;2023-04-27T09:41:44;100765.84;;;11.31;50.60
66681;BME280;53575;51.366;12.350;2023-04-27T09:44:10;100763.09;;;11.87;48.75
66681;BME280;53575;51.366;12.350;2023-04-27T09:46:36;100769.19;;;11.91;46.59
66681;BME280;53575;51.366;12.350;2023-04-27T09:49:03;100762.31;;;11.50;46.71
66681;BME280;53575;51.366;12.350;2023-04-27T09:51:29;100753.56;;;11.56;47.33
66681;BME280;53575;51.366;12.350;2023-04-27T09:53:57;100754.44;;;11.52;48.36
66681;BME280;53575;51.366;12.350;2023-04-27T10:02:05;100763.28;;;10.85;50.82
66681;BME280;53575;51.366;12.350;2023-04-27T10:07:20;100763.28;;;10.88;52.28
66681;BME280;53575;51.366;12.350;2023-04-27T10:09:47;100764.16;;;10.93;51.50
66681;BME280;53575;51.366;12.350;2023-04-27T10:12:31;100763.28;;;10.92;52.07
66681;BME280;53575;51.366;12.350;2023-04-27T10:14:58;100762.38;;;11.03;52.78
66681;BME280;53575;51.366;12.350;2023-04-27T10:17:32;100759.72;;;11.38;51.89
66681;BME280;53575;51.366;12.350;2023-04-27T10:20:06;100752.63;;;11.67;51.07
66681;BME280;53575;51.366;12.350;2023-04-27T10:22:44;100747.31;;;12.00;49.23
66681;BME280;53575;51.366;12.350;2023-04-27T10:25:18;100754.06;;;12.42;47.19
66681;BME280;53575;51.366;12.350;2023-04-27T10:27:54;100743.53;;;12.43;47.83
66681;BME280;53575;51.366;12.350;2023-04-27T10:30:22;100756.03;;;12.06;47.44
66681;BME280;53575;51.366;12.350;2023-04-27T10:32:56;100752.28;;;12.42;46.39
66681;BME280;53575;51.366;12.350;2023-04-27T10:35:32;100760.25;;;12.29;44.91
66681;BME280;53575;51.366;12.350;2023-04-27T10:38:16;100753.44;;;11.94;44.82
66681;BME280;53575;51.366;12.350;2023-04-27T10:40:44;100760.53;;;11.58;45.18
66681;BME280;53575;51.366;12.350;2023-04-27T10:43:14;100760.50;;;11.72;45.14
66681;BME280;53575;51.366;12.350;2023-04-27T10:45:41;100764.84;;;11.75;45.08
66681;BME280;53575;51.366;12.350;2023-04-27T10:48:07;100762.09;;;12.11;44.43
66681;BME280;53575;51.366;12.350;2023-04-27T10:50:32;100754.22;;;12.16;44.68
66681;BME280;53575;51.366;12.350;2023-04-27T10:52:59;100752.41;;;12.29;45.88
66681;BME280;53575;51.366;12.350;2023-04-27T10:55:26;100754.22;;;12.17;44.55
66681;BME280;53575;51.366;12.350;2023-04-27T10:57:53;100754.28;;;12.07;43.27
66681;BME280;53575;51.366;12.350;2023-04-27T11:00:29;100755.28;;;11.60;43.96
66681;BME280;53575;51.366;12.350;2023-04-27T11:03:12;100758.00;;;11.21;43.38
66681;BME280;53575;51.366;12.350;2023-04-27T11:05:39;100756.28;;;11.27;43.63
66681;BME280;53575;51.366;12.350;2023-04-27T11:10:31;100763.22;;;11.32;45.19
66681;BME280;53575;51.366;12.350;2023-04-27T11:12:56;100757.13;;;11.32;44.63
66681;BME280;53575;51.366;12.350;2023-04-27T11:15:23;100748.25;;;11.88;45.82
66681;BME280;53575;51.366;12.350;2023-04-27T11:17:48;100750.81;;;12.00;43.67
66681;BME280;53575;51.366;12.350;2023-04-27T11:20:23;100749.97;;;11.83;45.21
66681;BME280;53575;51.366;12.350;2023-04-27T11:22:48;100747.88;;;12.48;43.31
66681;BME280;53575;51.366;12.350;2023-04-27T11:25:14;100750.09;;;13.01;43.00
66681;BME280;53575;51.366;12.350;2023-04-27T11:27:40;100750.28;;;13.71;41.37
66681;BME280;53575;51.366;12.350;2023-04-27T11:30:17;100755.88;;;13.40;40.36
66681;BME280;53575;51.366;12.350;2023-04-27T11:32:44;100751.69;;;13.17;40.50
66681;BME280;53575;51.366;12.350;2023-04-27T11:35:10;100753.13;;;12.48;42.12
66681;BME280;53575;51.366;12.350;2023-04-27T11:37:35;100754.25;;;12.08;43.00
66681;BME280;53575;51.366;12.350;2023-04-27T11:40:01;100749.13;;;11.88;43.63
66681;BME280;53575;51.366;12.350;2023-04-27T11:42:27;100755.31;;;11.54;44.65
66681;BME280;53575;51.366;12.350;2023-04-27T11:45:01;100759.66;;;11.58;43.93
66681;BME280;53575;51.366;12.350;2023-04-27T11:47:31;100764.91;;;11.61;44.17
66681;BME280;53575;51.366;12.350;2023-04-27T11:50:01;100760.50;;;11.67;45.20
66681;BME280;53575;51.366;12.350;2023-04-27T11:54:54;100750.72;;;12.15;44.57
66681;BME280;53575;51.366;12.350;2023-04-27T11:57:26;100747.75;;;12.66;43.93
66681;BME280;53575;51.366;12.350;2023-04-27T11:59:52;100751.34;;;12.51;43.33
66681;BME280;53575;51.366;12.350;2023-04-27T12:02:19;100751.06;;;12.88;42.18
66681;BME280;53575;51.366;12.350;2023-04-27T12:04:46;100751.75;;;13.11;41.69
66681;BME280;53575;51.366;12.350;2023-04-27T12:07:12;100757.72;;;13.30;41.08
66681;BME280;53575;51.366;12.350;2023-04-27T12:09:38;100750.53;;;13.46;40.36
66681;BME280;53575;51.366;12.350;2023-04-27T12:12:05;100762.81;;;13.44;40.80
66681;BME280;53575;51.366;12.350;2023-04-27T12:14:30;100753.44;;;13.17;40.45
66681;BME280;53575;51.366;12.350;2023-04-27T12:16:56;100746.50;;;13.10;40.37
66681;BME280;53575;51.366;12.350;2023-04-27T12:19:21;100753.31;;;13.32;40.34
66681;BME280;53575;51.366;12.350;2023-04-27T12:21:50;100747.47;;;13.00;39.99
66681;BME280;53575;51.366;12.350;2023-04-27T12:24:15;100754.91;;;13.46;39.58
66681;BME280;53575;51.366;12.350;2023-04-27T12:26:40;100761.63;;;13.74;39.00
66681;BME280;53575;51.366;12.350;2023-04-27T12:29:06;100751.38;;;13.51;38.62
66681;BME280;53575;51.366;12.350;2023-04-27T12:31:31;100746.44;;;13.17;39.10
66681;BME280;53575;51.366;12.350;2023-04-27T12:33:57;100755.13;;;13.29;39.21
66681;BME280;53575;51.366;12.350;2023-04-27T12:36:23;100743.16;;;13.79;38.90
66681;BME280;53575;51.366;12.350;2023-04-27T12:38:48;100747.34;;;13.94;37.22
66681;BME280;53575;51.366;12.350;2023-04-27T12:41:14;100754.59;;;13.75;37.84
66681;BME280;53575;51.366;12.350;2023-04-27T12:43:40;100745.25;;;14.20;37.71
66681;BME280;53575;51.366;12.350;2023-04-27T12:46:06;100743.22;;;13.74;38.15
66681;BME280;53575;51.366;12.350;2023-04-27T12:48:32;100734.47;;;14.37;38.62
66681;BME280;53575;51.366;12.350;2023-04-27T12:50:58;100741.78;;;14.17;37.34
66681;BME280;53575;51.366;12.350;2023-04-27T12:53:23;100731.75;;;14.43;37.00
66681;BME280;53575;51.366;12.350;2023-04-27T12:55:49;100730.19;;;14.87;37.32
66681;BME280;53575;51.366;12.350;2023-04-27T12:58:15;100733.31;;;15.55;35.70